createdAt,value
2022-08-23T00:00:36.903Z,95.85
2022-08-23T00:01:36.668Z,95.70
2022-08-23T00:02:36.675Z,96.00
2022-08-23T00:03:36.698Z,96.20
2022-08-23T00:04:36.625Z,96.20
2022-08-23T00:05:36.597Z,96.10
2022-08-23T00:06:36.623Z,96.00
2022-08-23T00:07:38.723Z,96.14
2022-08-23T00:08:36.569Z,96.14
2022-08-23T00:09:36.562Z,96.25
2022-08-23T00:10:36.550Z,96.14
2022-08-23T00:11:36.542Z,96.14
2022-08-23T00:12:36.613Z,96.25
2022-08-23T00:13:48.005Z,96.39
2022-08-23T00:14:36.528Z,96.80
2022-08-23T00:15:36.489Z,96.80
2022-08-23T00:16:36.502Z,96.89
2022-08-23T00:17:36.468Z,97.00
2022-08-23T00:18:36.520Z,96.89
2022-08-23T00:19:36.496Z,97.10
2022-08-23T00:20:36.437Z,97.00
2022-08-23T00:21:36.479Z,96.89
2022-08-23T00:22:36.414Z,97.00
2022-08-23T00:23:36.412Z,97.00
2022-08-23T00:24:40.765Z,97.25
2022-08-23T00:25:36.474Z,97.45
2022-08-23T00:26:36.414Z,97.45
2022-08-23T00:27:36.365Z,97.45
2022-08-23T00:28:36.388Z,97.65
2022-08-23T00:29:37.309Z,98.05
2022-08-23T00:30:37.115Z,98.05
2022-08-23T00:31:36.385Z,98.25
2022-08-23T00:32:36.296Z,98.05
2022-08-23T00:33:36.358Z,97.96
2022-08-23T00:34:36.351Z,98.05
2022-08-23T00:35:36.306Z,98.16
2022-08-23T00:36:36.307Z,98.05
2022-08-23T00:37:36.252Z,97.96
2022-08-23T00:38:36.615Z,97.96
2022-08-23T00:39:36.228Z,97.96
2022-08-23T00:40:36.273Z,97.85
2022-08-23T00:41:36.286Z,97.75
2022-08-23T00:42:36.356Z,97.55
2022-08-23T00:43:37.249Z,97.75
2022-08-23T00:44:36.212Z,97.80
2022-08-23T00:45:36.843Z,97.80
2022-08-23T00:46:36.171Z,97.80
2022-08-23T00:47:36.253Z,97.80
2022-08-23T00:48:36.338Z,97.90
2022-08-23T00:49:36.171Z,97.80
2022-08-23T00:50:36.134Z,98.00
2022-08-23T00:51:52.469Z,98.00
2022-08-23T00:52:36.245Z,98.40
2022-08-23T00:53:36.320Z,98.56
2022-08-23T00:54:36.796Z,98.76
2022-08-23T00:55:36.802Z,98.56
2022-08-23T00:56:36.093Z,98.76
2022-08-23T00:57:36.029Z,98.76
2022-08-23T00:58:36.359Z,99.07
2022-08-23T00:59:36.083Z,99.07
2022-08-23T01:00:36.355Z,99.16
2022-08-23T01:01:36.253Z,99.07
2022-08-23T01:02:36.029Z,99.16
2022-08-23T01:03:38.520Z,98.96
2022-08-23T01:04:35.966Z,98.86
2022-08-23T01:05:36.663Z,98.66
2022-08-23T01:06:36.901Z,98.61
2022-08-23T01:07:36.012Z,98.61
2022-08-23T01:08:36.011Z,98.61
2022-08-23T01:09:36.027Z,98.30
2022-08-23T01:10:35.868Z,98.20
2022-08-23T01:11:35.896Z,98.10
2022-08-23T01:12:35.959Z,98.30
2022-08-23T01:13:35.926Z,98.30
2022-08-23T01:14:36.126Z,98.14
2022-08-23T01:15:35.825Z,98.14
2022-08-23T01:16:35.815Z,98.14
2022-08-23T01:17:35.949Z,98.14
2022-08-23T01:18:36.975Z,98.45
2022-08-23T01:19:35.896Z,98.45
2022-08-23T01:20:35.964Z,98.75
2022-08-23T01:21:36.446Z,98.65
2022-08-23T01:22:36.030Z,98.91
2022-08-23T01:23:35.813Z,99.01
2022-08-23T01:25:06.892Z,99.01
2022-08-23T01:25:35.731Z,99.11
2022-08-23T01:26:35.753Z,99.01
2022-08-23T01:27:36.025Z,99.01
2022-08-23T01:28:35.994Z,98.91
2022-08-23T01:29:36.373Z,98.81
2022-08-23T01:30:35.882Z,98.91
2022-08-23T01:31:35.766Z,98.81
2022-08-23T01:32:35.787Z,98.71
2022-08-23T01:33:37.458Z,98.61
2022-08-23T01:34:35.758Z,98.40
2022-08-23T01:35:35.640Z,98.30
2022-08-23T01:36:35.627Z,98.20
2022-08-23T01:37:35.744Z,98.20
2022-08-23T01:38:35.716Z,98.10
2022-08-23T01:39:35.575Z,98.20
2022-08-23T01:40:35.551Z,98.14
2022-08-23T01:41:35.621Z,98.14
2022-08-23T01:42:35.809Z,98.25
2022-08-23T01:43:35.700Z,98.45
2022-08-23T01:44:35.878Z,98.40
2022-08-23T01:45:35.603Z,98.40
2022-08-23T01:46:35.599Z,98.40
2022-08-23T01:47:35.538Z,98.30
2022-08-23T01:48:35.648Z,98.30
2022-08-23T01:49:35.625Z,98.30
2022-08-23T01:51:35.433Z,98.00
2022-08-23T01:52:36.269Z,97.90
2022-08-23T01:53:35.463Z,97.80
2022-08-23T01:54:35.630Z,97.80
2022-08-23T01:55:35.368Z,97.80
2022-08-23T01:56:39.286Z,97.69
2022-08-23T01:57:35.495Z,97.39
2022-08-23T01:58:35.628Z,97.39
2022-08-23T01:59:35.395Z,97.34
2022-08-23T02:00:35.506Z,97.54
2022-08-23T02:01:35.572Z,97.54
2022-08-23T02:02:35.325Z,97.54
2022-08-23T02:03:35.310Z,97.24
2022-08-23T02:04:36.259Z,97.24
2022-08-23T02:05:35.410Z,97.18
2022-08-23T02:06:35.315Z,97.28
2022-08-23T02:07:35.250Z,97.28
2022-08-23T02:08:35.279Z,97.58
2022-08-23T02:09:35.218Z,97.49
2022-08-23T02:10:40.082Z,97.63
2022-08-23T02:11:35.396Z,97.53
2022-08-23T02:12:35.440Z,97.43
2022-08-23T02:13:35.168Z,97.53
2022-08-23T02:14:35.315Z,97.53
2022-08-23T02:15:35.164Z,97.53
2022-08-23T02:16:35.215Z,97.47
2022-08-23T02:17:35.123Z,97.47
2022-08-23T02:18:35.221Z,97.38
2022-08-23T02:19:35.615Z,97.27
2022-08-23T02:20:35.104Z,97.47
2022-08-23T02:21:35.075Z,97.47
2022-08-23T02:22:35.072Z,97.27
2022-08-23T02:23:35.347Z,97.27
2022-08-23T02:24:35.135Z,97.42
2022-08-23T02:25:35.044Z,97.62
2022-08-23T02:26:35.029Z,97.83
2022-08-23T02:27:35.092Z,97.83
2022-08-23T02:28:35.779Z,97.72
2022-08-23T02:29:39.161Z,97.92
2022-08-23T02:30:35.088Z,97.92
2022-08-23T02:31:34.983Z,97.83
2022-08-23T02:32:35.015Z,97.92
2022-08-23T02:33:34.970Z,97.92
2022-08-23T02:34:35.038Z,97.92
2022-08-23T02:35:35.615Z,97.83
2022-08-23T02:36:35.097Z,97.72
2022-08-23T02:37:34.906Z,97.52
2022-08-23T02:38:35.002Z,97.36
2022-08-23T02:39:34.943Z,97.26
2022-08-23T02:40:35.145Z,97.26
2022-08-23T02:41:35.750Z,97.36
2022-08-23T02:42:35.693Z,97.16
2022-08-23T02:43:39.383Z,97.26
2022-08-23T02:44:34.879Z,97.26
2022-08-23T02:45:35.626Z,97.47
2022-08-23T02:46:35.873Z,97.47
2022-08-23T02:47:34.854Z,97.47
2022-08-23T02:48:34.834Z,97.56
2022-08-23T02:49:34.771Z,97.67
2022-08-23T02:50:34.770Z,97.77
2022-08-23T02:51:34.794Z,97.77
2022-08-23T02:52:34.760Z,97.72
2022-08-23T02:53:35.614Z,97.77
2022-08-23T02:54:34.789Z,98.03
2022-08-23T02:55:34.742Z,98.13
2022-08-23T02:56:34.708Z,98.43
2022-08-23T02:57:34.766Z,98.74
2022-08-23T02:58:34.711Z,98.84
2022-08-23T02:59:34.654Z,98.94
2022-08-23T03:00:34.698Z,99.04
2022-08-23T03:01:34.643Z,99.04
2022-08-23T03:02:36.273Z,99.04
2022-08-23T03:03:34.674Z,99.35
2022-08-23T03:04:34.751Z,99.40
2022-08-23T03:05:34.587Z,99.40
2022-08-23T03:06:34.624Z,99.30
2022-08-23T03:07:34.858Z,99.30
2022-08-23T03:08:34.965Z,99.19
2022-08-23T03:09:34.563Z,99.10
2022-08-23T03:10:34.703Z,98.79
2022-08-23T03:11:34.529Z,98.79
2022-08-23T03:12:34.566Z,98.74
2022-08-23T03:13:35.252Z,98.74
2022-08-23T03:14:34.773Z,98.59
2022-08-23T03:15:34.769Z,98.44
2022-08-23T03:16:34.670Z,98.28
2022-08-23T03:17:34.463Z,98.18
2022-08-23T03:18:34.493Z,97.98
2022-08-23T03:19:34.448Z,98.08
2022-08-23T03:20:34.449Z,98.28
2022-08-23T03:21:34.415Z,98.28
2022-08-23T03:22:34.413Z,98.39
2022-08-23T03:23:34.393Z,98.49
2022-08-23T03:24:34.471Z,98.59
2022-08-23T03:25:34.380Z,98.59
2022-08-23T03:26:34.370Z,98.59
2022-08-23T03:27:38.353Z,98.59
2022-08-23T03:28:34.332Z,98.54
2022-08-23T03:29:34.327Z,98.74
2022-08-23T03:30:34.339Z,98.74
2022-08-23T03:31:34.332Z,98.84
2022-08-23T03:32:34.286Z,98.74
2022-08-23T03:33:34.286Z,98.84
2022-08-23T03:34:34.271Z,98.84
2022-08-23T03:35:34.251Z,98.74
2022-08-23T03:36:34.286Z,98.74
2022-08-23T03:37:35.791Z,98.94
2022-08-23T03:38:34.248Z,98.94
2022-08-23T03:39:34.228Z,99.04
2022-08-23T03:40:34.193Z,98.94
2022-08-23T03:41:34.188Z,99.04
2022-08-23T03:42:34.269Z,99.04
2022-08-23T03:43:34.203Z,98.94
2022-08-23T03:44:34.153Z,98.94
2022-08-23T03:45:34.165Z,99.04
2022-08-23T03:46:34.411Z,99.04
2022-08-23T03:47:34.125Z,98.94
2022-08-23T03:48:34.175Z,98.74
2022-08-23T03:49:34.108Z,98.63
2022-08-23T03:50:34.107Z,98.63
2022-08-23T03:51:34.089Z,98.54
2022-08-23T03:52:34.112Z,98.54
2022-08-23T03:53:34.099Z,98.63
2022-08-23T03:54:34.174Z,98.74
2022-08-23T03:55:34.078Z,98.63
2022-08-23T03:56:34.024Z,98.33
2022-08-23T03:57:34.015Z,98.43
2022-08-23T03:58:34.000Z,98.33
2022-08-23T03:59:33.982Z,98.33
2022-08-23T04:00:34.036Z,98.54
2022-08-23T04:01:34.072Z,98.54
2022-08-23T04:02:33.976Z,98.49
2022-08-23T04:03:33.950Z,98.28
2022-08-23T04:04:33.934Z,98.18
2022-08-23T04:05:33.928Z,98.08
2022-08-23T04:06:34.044Z,98.23
2022-08-23T04:07:33.900Z,98.39
2022-08-23T04:08:34.146Z,98.39
2022-08-23T04:09:33.880Z,98.39
2022-08-23T04:10:33.856Z,98.28
2022-08-23T04:11:33.859Z,98.18
2022-08-23T04:12:34.744Z,98.18
2022-08-23T04:13:33.863Z,97.98
2022-08-23T04:14:33.832Z,98.08
2022-08-23T04:15:34.003Z,98.13
2022-08-23T04:16:33.873Z,98.23
2022-08-23T04:17:33.903Z,98.03
2022-08-23T04:18:33.892Z,98.23
2022-08-23T04:19:33.790Z,98.33
2022-08-23T04:20:33.750Z,98.33
2022-08-23T04:21:33.838Z,98.28
2022-08-23T04:22:33.747Z,98.33
2022-08-23T04:23:33.734Z,98.33
2022-08-23T04:24:33.762Z,98.33
2022-08-23T04:25:35.713Z,98.33
2022-08-23T04:26:33.723Z,98.33
2022-08-23T04:27:33.743Z,98.28
2022-08-23T04:28:33.715Z,98.28
2022-08-23T04:29:34.706Z,98.28
2022-08-23T04:30:33.705Z,98.08
2022-08-23T04:31:34.805Z,97.98
2022-08-23T04:32:34.294Z,97.88
2022-08-23T04:33:33.656Z,97.78
2022-08-23T04:34:33.599Z,97.67
2022-08-23T04:35:33.597Z,97.67
2022-08-23T04:36:34.576Z,97.58
2022-08-23T04:37:33.563Z,97.58
2022-08-23T04:38:33.576Z,97.58
2022-08-23T04:39:33.587Z,97.47
2022-08-23T04:40:33.698Z,97.38
2022-08-23T04:41:33.538Z,97.27
2022-08-23T04:42:33.540Z,97.17
2022-08-23T04:43:34.280Z,96.97
2022-08-23T04:44:33.688Z,96.97
2022-08-23T04:45:33.468Z,96.87
2022-08-23T04:46:33.478Z,96.66
2022-08-23T04:47:33.460Z,96.77
2022-08-23T04:48:34.147Z,96.77
2022-08-23T04:49:33.471Z,96.77
2022-08-23T04:50:33.461Z,96.56
2022-08-23T04:51:33.430Z,96.42
2022-08-23T04:52:33.439Z,96.22
2022-08-23T04:53:33.417Z,96.22
2022-08-23T04:54:33.408Z,96.11
2022-08-23T04:55:33.618Z,96.01
2022-08-23T04:56:33.445Z,95.91
2022-08-23T04:57:33.336Z,95.91
2022-08-23T04:58:33.411Z,95.81
2022-08-23T04:59:33.335Z,95.71
2022-08-23T05:00:33.357Z,95.61
2022-08-23T05:01:33.383Z,95.56
2022-08-23T05:02:33.455Z,95.46
2022-08-23T05:03:33.326Z,95.36
2022-08-23T05:04:33.276Z,95.36
2022-08-23T05:05:33.245Z,95.46
2022-08-23T05:06:33.304Z,95.36
2022-08-23T05:07:42.783Z,95.36
2022-08-23T05:08:33.232Z,95.42
2022-08-23T05:09:33.212Z,95.42
2022-08-23T05:10:33.263Z,95.31
2022-08-23T05:11:33.179Z,95.21
2022-08-23T05:12:33.217Z,95.11
2022-08-23T05:13:34.855Z,95.21
2022-08-23T05:14:33.187Z,95.07
2022-08-23T05:15:33.220Z,94.96
2022-08-23T05:16:33.169Z,94.86
2022-08-23T05:17:33.116Z,94.86
2022-08-23T05:18:33.285Z,94.76
2022-08-23T05:19:33.218Z,94.66
2022-08-23T05:20:34.903Z,94.66
2022-08-23T05:21:33.244Z,94.51
2022-08-23T05:22:33.180Z,94.31
2022-08-23T05:23:33.060Z,94.11
2022-08-23T05:24:33.117Z,93.81
2022-08-23T05:25:33.087Z,93.81
2022-08-23T05:26:33.292Z,93.51
2022-08-23T05:27:33.455Z,93.36
2022-08-23T05:28:39.064Z,93.36
2022-08-23T05:29:39.009Z,93.36
2022-08-23T05:30:38.980Z,93.26
2022-08-23T05:31:32.955Z,93.16
2022-08-23T05:32:33.776Z,92.96
2022-08-23T05:33:32.974Z,92.96
2022-08-23T05:34:32.983Z,92.96
2022-08-23T05:35:33.029Z,92.96
2022-08-23T05:36:32.912Z,92.96
2022-08-23T05:37:32.919Z,93.05
2022-08-23T05:38:32.898Z,93.05
2022-08-23T05:39:36.351Z,93.05
2022-08-23T05:40:32.936Z,93.05
2022-08-23T05:41:38.404Z,92.91
2022-08-23T05:42:32.852Z,93.01
2022-08-23T05:43:32.830Z,92.71
2022-08-23T05:44:36.441Z,92.71
2022-08-23T05:45:32.850Z,92.61
2022-08-23T05:46:32.860Z,92.50
2022-08-23T05:47:33.812Z,92.61
2022-08-23T05:48:32.813Z,92.61
2022-08-23T05:49:32.803Z,92.46
2022-08-23T05:50:32.753Z,92.36
2022-08-23T05:51:32.780Z,92.36
2022-08-23T05:52:33.323Z,92.36
2022-08-23T05:53:32.792Z,92.46
2022-08-23T05:54:32.726Z,92.36
2022-08-23T05:55:35.134Z,92.26
2022-08-23T05:56:32.682Z,92.36
2022-08-23T05:57:32.677Z,92.32
2022-08-23T05:58:32.663Z,92.22
2022-08-23T05:59:32.749Z,92.32
2022-08-23T06:00:37.385Z,91.91
2022-08-23T06:01:32.667Z,91.82
2022-08-23T06:02:32.612Z,92.02
2022-08-23T06:03:32.593Z,91.91
2022-08-23T06:04:32.597Z,91.82
2022-08-23T06:05:33.306Z,91.67
2022-08-23T06:06:37.063Z,91.67
2022-08-23T06:07:32.566Z,91.27
2022-08-23T06:08:32.538Z,91.17
2022-08-23T06:09:32.531Z,91.06
2022-08-23T06:10:32.522Z,91.17
2022-08-23T06:11:32.731Z,91.47
2022-08-23T06:12:32.501Z,91.06
2022-08-23T06:13:32.487Z,90.97
2022-08-23T06:14:32.532Z,90.97
2022-08-23T06:15:32.473Z,91.17
2022-08-23T06:16:32.528Z,91.27
2022-08-23T06:17:33.387Z,91.53
2022-08-23T06:18:33.245Z,91.02
2022-08-23T06:19:32.450Z,90.72
2022-08-23T06:20:32.470Z,90.52
2022-08-23T06:21:33.841Z,90.62
2022-08-23T06:22:32.445Z,90.22
2022-08-23T06:23:32.473Z,90.32
2022-08-23T06:24:34.309Z,90.42
2022-08-23T06:25:32.392Z,90.01
2022-08-23T06:26:32.351Z,89.91
2022-08-23T06:27:32.362Z,89.47
2022-08-23T06:28:32.372Z,89.37
2022-08-23T06:29:32.386Z,89.37
2022-08-23T06:30:32.409Z,89.57
2022-08-23T06:31:32.324Z,89.37
2022-08-23T06:32:32.328Z,89.26
2022-08-23T06:33:32.390Z,89.26
2022-08-23T06:34:32.287Z,88.42
2022-08-23T06:35:39.187Z,88.22
2022-08-23T06:36:32.270Z,88.02
2022-08-23T06:37:32.255Z,87.92
2022-08-23T06:38:32.213Z,87.71
2022-08-23T06:39:36.761Z,88.02
2022-08-23T06:40:32.186Z,87.82
2022-08-23T06:41:32.241Z,87.41
2022-08-23T06:42:38.525Z,87.57
2022-08-23T06:43:32.167Z,87.27
2022-08-23T06:44:32.427Z,86.97
2022-08-23T06:45:34.869Z,86.77
2022-08-23T06:46:32.169Z,86.66
2022-08-23T06:47:32.145Z,86.57
2022-08-23T06:48:32.129Z,86.77
2022-08-23T06:49:32.222Z,86.57
2022-08-23T06:50:32.625Z,85.86
2022-08-23T06:51:32.109Z,85.46
2022-08-23T06:52:32.106Z,85.02
2022-08-23T06:53:32.144Z,85.02
2022-08-23T06:54:32.032Z,85.31
2022-08-23T06:55:32.009Z,85.11
2022-08-23T06:56:32.045Z,85.11
2022-08-23T06:57:32.034Z,85.22
2022-08-23T06:58:32.003Z,84.77
2022-08-23T06:59:32.088Z,84.17
2022-08-23T07:00:32.106Z,84.07
2022-08-23T07:01:47.636Z,84.37
2022-08-23T07:02:32.113Z,84.17
2022-08-23T07:03:36.478Z,84.17
2022-08-23T07:04:31.945Z,84.37
2022-08-23T07:05:31.969Z,84.37
2022-08-23T07:06:31.906Z,84.27
2022-08-23T07:07:41.251Z,84.74
2022-08-23T07:08:31.951Z,85.03
2022-08-23T07:09:31.937Z,85.24
2022-08-23T07:10:31.884Z,84.83
2022-08-23T07:11:32.013Z,84.74
2022-08-23T07:12:31.842Z,84.83
2022-08-23T07:13:31.912Z,83.33
2022-08-23T07:14:31.876Z,83.73
2022-08-23T07:15:31.838Z,83.23
2022-08-23T07:16:31.859Z,83.43
2022-08-23T07:17:31.873Z,83.49
2022-08-23T07:18:32.097Z,83.59
2022-08-23T07:19:31.825Z,83.89
2022-08-23T07:20:31.763Z,83.89
2022-08-23T07:21:31.768Z,83.79
2022-08-23T07:22:31.742Z,83.69
2022-08-23T07:23:31.846Z,83.59
2022-08-23T07:24:33.567Z,83.69
2022-08-23T07:25:31.842Z,83.18
2022-08-23T07:26:31.735Z,83.25
2022-08-23T07:27:31.687Z,83.55
2022-08-23T07:28:31.709Z,83.55
2022-08-23T07:29:31.739Z,83.75
2022-08-23T07:30:31.740Z,83.45
2022-08-23T07:31:31.665Z,82.95
2022-08-23T07:32:31.613Z,83.11
2022-08-23T07:33:31.667Z,82.20
2022-08-23T07:34:31.624Z,81.90
2022-08-23T07:35:34.648Z,81.00
2022-08-23T07:36:31.605Z,81.40
2022-08-23T07:37:31.607Z,80.16
2022-08-23T07:38:31.550Z,79.86
2022-08-23T07:39:31.566Z,80.46
2022-08-23T07:40:35.521Z,79.75
2022-08-23T07:41:32.797Z,80.66
2022-08-23T07:42:31.513Z,80.86
2022-08-23T07:43:31.506Z,79.62
2022-08-23T07:44:31.502Z,78.61
2022-08-23T07:45:31.496Z,79.22
2022-08-23T07:46:31.598Z,79.72
2022-08-23T07:47:31.602Z,80.02
2022-08-23T07:48:50.654Z,79.82
2022-08-23T07:49:31.446Z,79.62
2022-08-23T07:50:31.424Z,79.62
2022-08-23T07:51:32.456Z,79.22
2022-08-23T07:52:31.509Z,79.38
2022-08-23T07:53:37.381Z,79.68
2022-08-23T07:54:31.550Z,79.38
2022-08-23T07:55:31.432Z,79.48
2022-08-23T07:56:31.486Z,78.78
2022-08-23T07:57:31.473Z,79.58
2022-08-23T07:58:31.650Z,79.18
2022-08-23T07:59:34.611Z,79.38
2022-08-23T08:00:31.318Z,79.94
2022-08-23T08:01:31.414Z,79.94
2022-08-23T08:02:31.373Z,79.24
2022-08-23T08:03:31.334Z,79.54
2022-08-23T08:04:31.395Z,79.64
2022-08-23T08:05:31.408Z,78.34
2022-08-23T08:06:31.365Z,77.84
2022-08-23T08:07:31.435Z,77.44
2022-08-23T08:08:31.310Z,77.04
2022-08-23T08:09:31.406Z,75.90
2022-08-23T08:10:31.220Z,75.90
2022-08-23T08:11:34.729Z,75.90
2022-08-23T08:12:31.200Z,75.70
2022-08-23T08:13:32.092Z,75.20
2022-08-23T08:14:31.858Z,75.40
2022-08-23T08:15:31.165Z,75.60
2022-08-23T08:16:31.275Z,76.37
2022-08-23T08:17:31.389Z,75.56
2022-08-23T08:18:31.191Z,75.56
2022-08-23T08:19:31.161Z,75.87
2022-08-23T08:20:31.204Z,75.16
2022-08-23T08:21:31.138Z,75.26
2022-08-23T08:22:31.075Z,74.66
2022-08-23T08:23:31.131Z,74.56
2022-08-23T08:24:31.081Z,75.06
2022-08-23T08:25:31.886Z,74.63
2022-08-23T08:26:31.083Z,75.33
2022-08-23T08:27:31.138Z,74.33
2022-08-23T08:28:31.039Z,74.22
2022-08-23T08:29:31.041Z,74.63
2022-08-23T08:30:31.035Z,75.33
2022-08-23T08:31:31.039Z,75.33
2022-08-23T08:32:31.065Z,75.73
2022-08-23T08:33:31.137Z,75.33
2022-08-23T08:34:31.130Z,74.53
2022-08-23T08:35:31.061Z,74.63
2022-08-23T08:36:31.001Z,73.39
2022-08-23T08:37:30.937Z,73.79
2022-08-23T08:38:30.952Z,74.09
2022-08-23T08:39:30.927Z,74.29
2022-08-23T08:40:30.913Z,73.99
2022-08-23T08:41:30.936Z,74.19
2022-08-23T08:42:30.915Z,74.69
2022-08-23T08:43:30.908Z,73.89
2022-08-23T08:44:31.023Z,74.39
2022-08-23T08:45:31.370Z,74.39
2022-08-23T08:46:30.843Z,74.69
2022-08-23T08:47:30.892Z,73.79
2022-08-23T08:48:30.888Z,74.05
2022-08-23T08:49:31.963Z,74.55
2022-08-23T08:50:31.327Z,74.96
2022-08-23T08:51:30.795Z,75.26
2022-08-23T08:52:32.009Z,73.86
2022-08-23T08:53:30.850Z,72.96
2022-08-23T08:54:30.759Z,73.06
2022-08-23T08:55:30.696Z,73.36
2022-08-23T08:56:32.323Z,72.76
2022-08-23T08:57:30.755Z,73.32
2022-08-23T08:58:30.724Z,73.42
2022-08-23T08:59:30.854Z,72.22
2022-08-23T09:00:30.950Z,71.92
2022-08-23T09:01:31.119Z,72.13
2022-08-23T09:02:33.071Z,72.22
2022-08-23T09:03:30.801Z,72.42
2022-08-23T09:04:30.600Z,72.29
2022-08-23T09:05:30.644Z,72.59
2022-08-23T09:06:30.761Z,72.39
2022-08-23T09:07:31.482Z,72.89
2022-08-23T09:08:30.756Z,72.09
2022-08-23T09:09:30.799Z,72.29
2022-08-23T09:10:30.745Z,71.49
2022-08-23T09:11:30.894Z,70.59
2022-08-23T09:12:30.675Z,71.95
2022-08-23T09:13:30.567Z,72.16
2022-08-23T09:14:30.510Z,71.45
2022-08-23T09:15:30.561Z,70.36
2022-08-23T09:16:30.622Z,70.76
2022-08-23T09:17:30.514Z,71.36
2022-08-23T09:18:31.375Z,71.86
2022-08-23T09:19:30.481Z,70.36
2022-08-23T09:20:33.247Z,70.76
2022-08-23T09:21:30.579Z,70.26
2022-08-23T09:22:30.709Z,69.66
2022-08-23T09:23:30.808Z,69.96
2022-08-23T09:24:30.359Z,70.12
2022-08-23T09:25:30.550Z,71.42
2022-08-23T09:26:30.533Z,71.32
2022-08-23T09:27:32.705Z,72.22
2022-08-23T09:28:30.381Z,70.32
2022-08-23T09:29:30.629Z,70.53
2022-08-23T09:30:30.392Z,70.72
2022-08-23T09:31:34.084Z,69.32
2022-08-23T09:32:30.293Z,69.43
2022-08-23T09:33:30.385Z,70.42
2022-08-23T09:34:30.381Z,70.79
2022-08-23T09:35:30.420Z,69.39
2022-08-23T09:36:30.381Z,69.89
2022-08-23T09:37:30.441Z,69.49
2022-08-23T09:38:30.395Z,68.79
2022-08-23T09:39:31.468Z,68.90
2022-08-23T09:40:30.423Z,69.09
2022-08-23T09:41:30.413Z,70.16
2022-08-23T09:42:30.161Z,69.96
2022-08-23T09:43:30.238Z,68.56
2022-08-23T09:44:30.278Z,68.33
2022-08-23T09:45:35.201Z,68.83
2022-08-23T09:46:30.297Z,68.43
2022-08-23T09:47:30.367Z,68.53
2022-08-23T09:48:31.215Z,67.83
2022-08-23T09:49:30.136Z,68.03
2022-08-23T09:50:30.121Z,66.94
2022-08-23T09:51:30.091Z,67.73
2022-08-23T09:52:30.278Z,67.83
2022-08-23T09:53:30.511Z,67.13
2022-08-23T09:54:30.307Z,68.13
2022-08-23T09:55:30.078Z,68.33
2022-08-23T09:56:30.223Z,68.33
2022-08-23T09:57:29.983Z,68.73
2022-08-23T09:58:30.104Z,68.90
2022-08-23T09:59:30.345Z,69.29
2022-08-23T10:00:30.119Z,69.89
2022-08-23T10:01:30.045Z,68.40
2022-08-23T10:02:30.147Z,68.46
2022-08-23T10:03:30.057Z,66.17
2022-08-23T10:04:30.318Z,66.38
2022-08-23T10:05:30.421Z,65.98
2022-08-23T10:06:30.968Z,66.47
2022-08-23T10:07:30.858Z,66.77
2022-08-23T10:08:31.005Z,65.58
2022-08-23T10:09:29.879Z,65.68
2022-08-23T10:10:30.057Z,66.54
2022-08-23T10:11:31.010Z,66.44
2022-08-23T10:12:30.154Z,66.74
2022-08-23T10:13:30.079Z,65.84
2022-08-23T10:14:30.662Z,66.05
2022-08-23T10:15:34.261Z,65.35
2022-08-23T10:16:29.880Z,66.05
2022-08-23T10:17:29.906Z,65.88
2022-08-23T10:18:29.771Z,66.47
2022-08-23T10:19:29.759Z,66.57
2022-08-23T10:20:29.753Z,67.07
2022-08-23T10:21:29.730Z,66.47
2022-08-23T10:22:29.707Z,67.37
2022-08-23T10:23:29.807Z,66.35
2022-08-23T10:24:29.690Z,65.75
2022-08-23T10:25:29.692Z,64.36
2022-08-23T10:26:29.706Z,63.66
2022-08-23T10:27:29.681Z,63.16
2022-08-23T10:28:29.705Z,63.46
2022-08-23T10:29:30.367Z,63.63
2022-08-23T10:30:29.663Z,63.82
2022-08-23T10:31:29.639Z,63.23
2022-08-23T10:32:29.613Z,63.03
2022-08-23T10:33:29.618Z,63.73
2022-08-23T10:34:29.969Z,63.73
2022-08-23T10:35:29.690Z,61.91
2022-08-23T10:36:29.658Z,63.30
2022-08-23T10:37:29.668Z,61.91
2022-08-23T10:38:29.600Z,62.30
2022-08-23T10:39:29.588Z,62.30
2022-08-23T10:40:29.570Z,63.10
2022-08-23T10:41:29.567Z,63.60
2022-08-23T10:42:29.490Z,64.29
2022-08-23T10:43:29.598Z,63.76
2022-08-23T10:44:29.494Z,63.96
2022-08-23T10:45:29.485Z,62.77
2022-08-23T10:46:29.547Z,61.88
2022-08-23T10:47:29.737Z,62.07
2022-08-23T10:48:29.456Z,61.38
2022-08-23T10:49:30.453Z,61.15
2022-08-23T10:50:29.401Z,61.05
2022-08-23T10:51:31.535Z,61.98
2022-08-23T10:52:29.372Z,62.74
2022-08-23T10:53:29.453Z,63.34
2022-08-23T10:54:29.392Z,63.34
2022-08-23T10:55:29.438Z,62.74
2022-08-23T10:56:29.385Z,63.34
2022-08-23T10:57:29.364Z,63.34
2022-08-23T10:58:30.759Z,62.24
2022-08-23T10:59:29.426Z,63.34
2022-08-23T11:00:30.427Z,62.74
2022-08-23T11:01:29.406Z,60.75
2022-08-23T11:02:29.316Z,61.45
2022-08-23T11:03:29.338Z,61.25
2022-08-23T11:04:30.891Z,61.62
2022-08-23T11:05:29.367Z,61.52
2022-08-23T11:06:29.626Z,61.72
2022-08-23T11:07:29.286Z,62.31
2022-08-23T11:08:29.310Z,62.31
2022-08-23T11:09:29.311Z,62.71
2022-08-23T11:10:29.262Z,62.78
2022-08-23T11:11:29.641Z,60.60
2022-08-23T11:12:29.398Z,59.80
2022-08-23T11:13:29.159Z,60.00
2022-08-23T11:14:29.161Z,59.70
2022-08-23T11:15:29.198Z,59.51
2022-08-23T11:16:29.136Z,59.01
2022-08-23T11:17:29.510Z,58.81
2022-08-23T11:18:33.099Z,59.21
2022-08-23T11:19:29.131Z,59.11
2022-08-23T11:20:29.073Z,60.50
2022-08-23T11:21:29.085Z,60.86
2022-08-23T11:22:29.061Z,60.67
2022-08-23T11:23:29.116Z,62.15
2022-08-23T11:24:29.050Z,61.23
2022-08-23T11:25:29.035Z,60.44
2022-08-23T11:26:29.002Z,59.45
2022-08-23T11:27:29.019Z,58.86
2022-08-23T11:28:30.548Z,58.65
2022-08-23T11:29:29.076Z,58.83
2022-08-23T11:30:28.972Z,58.23
2022-08-23T11:31:28.952Z,57.74
2022-08-23T11:32:30.141Z,58.03
2022-08-23T11:33:28.940Z,57.84
2022-08-23T11:34:29.860Z,58.33
2022-08-23T11:35:28.973Z,57.44
2022-08-23T11:36:28.913Z,57.64
2022-08-23T11:37:28.892Z,58.43
2022-08-23T11:38:28.895Z,58.73
2022-08-23T11:39:28.872Z,57.93
2022-08-23T11:40:28.948Z,57.61
2022-08-23T11:41:30.170Z,55.83
2022-08-23T11:42:28.840Z,55.83
2022-08-23T11:43:28.822Z,55.04
2022-08-23T11:44:28.824Z,55.43
2022-08-23T11:45:28.805Z,57.02
2022-08-23T11:46:28.805Z,56.82
2022-08-23T11:47:28.845Z,57.51
2022-08-23T11:48:28.801Z,56.72
2022-08-23T11:49:28.763Z,56.30
2022-08-23T11:50:28.767Z,56.89
2022-08-23T11:51:28.757Z,56.59
2022-08-23T11:52:28.769Z,56.99
2022-08-23T11:53:28.801Z,56.99
2022-08-23T11:54:29.202Z,57.46
2022-08-23T11:55:29.226Z,55.58
2022-08-23T11:56:29.142Z,54.59
2022-08-23T11:57:29.102Z,55.08
2022-08-23T11:58:29.674Z,55.68
2022-08-23T11:59:29.271Z,55.38
2022-08-23T12:00:29.718Z,56.57
2022-08-23T12:01:29.561Z,57.13
2022-08-23T12:02:29.047Z,56.93
2022-08-23T12:03:28.977Z,56.44
2022-08-23T12:04:28.998Z,55.52
2022-08-23T12:05:29.222Z,56.61
2022-08-23T12:06:29.075Z,56.41
2022-08-23T12:07:29.084Z,54.61
2022-08-23T12:08:28.895Z,54.14
2022-08-23T12:09:29.045Z,55.10
2022-08-23T12:10:28.951Z,53.33
2022-08-23T12:11:29.048Z,54.51
2022-08-23T12:12:28.839Z,54.61
2022-08-23T12:13:28.773Z,53.81
2022-08-23T12:14:28.891Z,55.00
2022-08-23T12:15:29.055Z,55.37
2022-08-23T12:16:28.923Z,54.78
2022-08-23T12:17:29.734Z,55.47
2022-08-23T12:18:29.484Z,55.66
2022-08-23T12:19:28.837Z,53.08
2022-08-23T12:20:28.522Z,53.27
2022-08-23T12:21:28.751Z,51.89
2022-08-23T12:22:28.848Z,52.36
2022-08-23T12:23:28.827Z,52.85
2022-08-23T12:24:28.857Z,52.75
2022-08-23T12:25:28.848Z,53.02
2022-08-23T12:26:28.681Z,52.92
2022-08-23T12:27:28.543Z,52.50
2022-08-23T12:28:34.588Z,52.01
2022-08-23T12:29:28.501Z,51.32
2022-08-23T12:30:28.589Z,49.82
2022-08-23T12:31:28.671Z,50.51
2022-08-23T12:32:28.767Z,50.71
2022-08-23T12:33:28.563Z,49.92
2022-08-23T12:34:28.883Z,50.29
2022-08-23T12:35:28.727Z,48.86
2022-08-23T12:36:28.669Z,49.01
2022-08-23T12:37:28.670Z,45.73
2022-08-23T12:38:28.715Z,45.12
2022-08-23T12:39:28.687Z,44.19
2022-08-23T12:40:28.736Z,43.68
2022-08-23T12:41:28.464Z,42.95
2022-08-23T12:42:28.479Z,43.24
2022-08-23T12:43:28.649Z,42.54
2022-08-23T12:44:28.705Z,42.60
2022-08-23T12:45:28.373Z,41.50
2022-08-23T12:46:28.418Z,41.91
2022-08-23T12:47:28.478Z,41.02
2022-08-23T12:48:28.487Z,41.07
2022-08-23T12:49:28.440Z,40.33
2022-08-23T12:50:32.451Z,40.11
2022-08-23T12:51:28.425Z,40.00
2022-08-23T12:52:28.673Z,39.78
2022-08-23T12:53:28.423Z,39.03